Startpagina
METAR-TAF:

METAR-TAF

Vliegvelden :

Internationale Luchthaven Oostende-Brugge

Oostende, België

breedte: 51-12N, lengte: 002-52E, hoogte: 4 m

Actueel weer

Dit bericht is 23 minuten geleden gemaakt, om 02:20 UTC
Wind 8 kt uit het zuidoosten
Temperatuur 10°C
Vochtigheid 87%
Druk 1000 hPa
Zicht 10 km of meer
Weinig wolken op 4800 ft
lichte regen

METAR: EBOS 250220Z 13008KT 9999 -RA FEW048 10/08 Q1000 NOSIG

Tijdstip: 04:43 (02:43 UTC)

Verwachting

Dit bericht is 3 uur en het 23 minuten geleden gemaakt, om 23:20 UTC
Verwachting geldig van 25 om 00 UTC tot 26 om 06 UTC
Wind 11 kt uit het zuidzuidoosten
Zicht 10 km of meer
Weinig wolken op 2400 ft
Kans 40% :
Tijdelijke
van 24 om 07 UTC tot 25 om 12 UTC
Wind 16 kt uit het zuiden met uitschieters tot 30 kt
Zicht: 4000 m
regen, regenbuien
Kans 40% :
Tijdelijke
van 25 om 16 UTC tot 25 om 20 UTC
Zicht: 4000 m
regen, regenbuien

TAF: EBOS 242320Z 2500/2606 16011KT 9999 FEW024 PROB40 TEMPO 2407/2512 17016G30KT 4000 RA SHRA PROB40 TEMPO 2516/2520 4000 RA SHRA

Waarnemingen en weersverwachtingen van meer dan 4000 vliegvelden (METAR en TAF).

De beschikbare stations zijn de gele en rode punten op de kaart.

Ga met uw muis naar het station om de naam te zien.

Klik dan om waarnemingen en weersverwachtingen te zien.

kaart wijzigen: klik op de groene knoppen met een zwart kruis om in te zoomen, op de groene knop met een streepje om uit te zoomen of op de groene pijlen voor aangrenzende kaarten.


METAR-TAF: